CHICAGO AURORA MUNICIPAL, IL, United States (KARR) 41-46N 088-28W 215M
Wind: from the N (350 degrees) at 16 MPH (14 KT):0
Visibility: 10 mile(s):0
Sky conditions: clear
Temperature: 53.1 F (11.7 C)
Dew Point: 25.0 F (-3.9 C)
Relative Humidity: 33%
Pressure (altimeter): 30.39 in. Hg (1029 hPa)
ob: KARR 192152Z AUTO 35014KT 10SM CLR 12/M04 A3039 RMK AO2 SLP296 T01171039
Raw METAR:KARR 192152Z AUTO 35014KT 10SM CLR 12/M04 A3039 RMK AO2 SLP296 T01171039
cycle: 22
Back to top

CHICAGO/WEST CH DUPAGE, IL, United States (KDPA) 41-54N 88-15W 230M
Wind: from the N (360 degrees) at 9 MPH (8 KT):0
Visibility: 10 mile(s):0
Sky conditions: clear
Temperature: 53.1 F (11.7 C)
Dew Point: 25.0 F (-3.9 C)
Relative Humidity: 33%
Pressure (altimeter): 30.38 in. Hg (1028 hPa)
ob: KDPA 192152Z 36008KT 10SM CLR 12/M04 A3038 RMK AO2 SLP292 T01171039
Raw METAR:KDPA 192152Z 36008KT 10SM CLR 12/M04 A3038 RMK AO2 SLP292 T01171039
cycle: 22
Back to top

De Kalb, De Kalb Taylor Municipal Airport, IL, United States (KDKB) 41-55-55N 088-42-30W
Wind: from the N (360 degrees) at 14 MPH (12 KT) gusting to 18 MPH (16 KT):0
Visibility: 10 mile(s):0
Sky conditions: clear
Temperature: 51.4 F (10.8 C)
Dew Point: 25.0 F (-3.9 C)
Relative Humidity: 35%
Pressure (altimeter): 30.41 in. Hg (1029 hPa)
ob: KDKB 192235Z AUTO 36012G16KT 10SM CLR 11/M04 A3041 RMK AO2 T01081039
Raw METAR:KDKB 192235Z AUTO 36012G16KT 10SM CLR 11/M04 A3041 RMK AO2 T01081039
cycle: 22
Back to top

Joliet, Joliet Regional Airport, IL, United States (KJOT) 41-31-05N 088-10-31W
Wind: from the NW (320 degrees) at 6 MPH (5 KT) gusting to 9 MPH (8 KT):0
Visibility: 10 mile(s):0
Sky conditions: clear
Temperature: 54.9 F (12.7 C)
Dew Point: 26.8 F (-2.9 C)
Relative Humidity: 33%
Pressure (altimeter): 30.39 in. Hg (1029 hPa)
ob: KJOT 192235Z AUTO 32005G08KT 10SM CLR 13/M03 A3039 RMK AO2 T01271029
Raw METAR:KJOT 192235Z AUTO 32005G08KT 10SM CLR 13/M03 A3039 RMK AO2 T01271029
cycle: 22
Back to top

Kankakee, Greater Kankakee Airport, IL, United States (KIKK) 41-04-17N 087-50-47W
Wind: from the N (360 degrees) at 7 MPH (6 KT):0
Visibility: 10 mile(s):0
Sky conditions: clear
Temperature: 54.1 F (12.3 C)
Dew Point: 27.7 F (-2.4 C)
Relative Humidity: 35%
Pressure (altimeter): 30.39 in. Hg (1029 hPa)
ob: KIKK 192235Z AUTO 36006KT 10SM CLR 12/M02 A3039 RMK AO2 T01231024
Raw METAR:KIKK 192235Z AUTO 36006KT 10SM CLR 12/M02 A3039 RMK AO2 T01231024
cycle: 22
Back to top

Morris, Morris Municipal-James R Washburn Field Airport, IL, United States (KC09) 41-25-31N 088-25-07W
Wind: from the NNW (340 degrees) at 7 MPH (6 KT):0
Visibility: 10 mile(s):0
Sky conditions: clear
Temperature: 53.6 F (12.0 C)
Dew Point: 24.4 F (-4.2 C)
Relative Humidity: 31%
Pressure (altimeter): 30.39 in. Hg (1029 hPa)
ob: KC09 192235Z AUTO 34006KT 10SM CLR 12/M04 A3039 RMK AO2 T01201042
Raw METAR:KC09 192235Z AUTO 34006KT 10SM CLR 12/M04 A3039 RMK AO2 T01201042
cycle: 22
Back to top

Peru, Illinois Valley Regional-Walter A Duncan Field Airport, IL, United States (KVYS) 41-21-07N 089-09-11W
Wind: from the N (350 degrees) at 10 MPH (9 KT):0
Visibility: 10 mile(s):0
Sky conditions: clear
Temperature: 55.2 F (12.9 C)
Dew Point: 28.9 F (-1.7 C)
Relative Humidity: 36%
Pressure (altimeter): 30.42 in. Hg (1030 hPa)
ob: KVYS 192230Z AUTO 35009KT 10SM CLR 13/M02 A3042 RMK AO2 T01291017
Raw METAR:KVYS 192230Z AUTO 35009KT 10SM CLR 13/M02 A3042 RMK AO2 T01291017
cycle: 22
Back to top

Rochelle, Rochelle Municipal-Koritz Field Airport, IL, United States (KRPJ) 41-53-35N 089-04-42W
Wind: from the NW (320 degrees) at 13 MPH (11 KT):0
Visibility: 10 mile(s):0
Sky conditions: clear
Temperature: 51.4 F (10.8 C)
Dew Point: 27.7 F (-2.4 C)
Relative Humidity: 39%
Pressure (altimeter): 30.42 in. Hg (1030 hPa)
ob: KRPJ 192235Z AUTO 32011KT 10SM CLR 11/M02 A3042 RMK AO2 T01081024
Raw METAR:KRPJ 192235Z AUTO 32011KT 10SM CLR 11/M02 A3042 RMK AO2 T01081024
cycle: 22
Back to top